TimeEST,TemperatureF,Dew PointF,Humidity,Sea Level PressureIn,VisibilityMPH,Wind Direction,Wind SpeedMPH,Gust SpeedMPH,PrecipitationIn,Events,Conditions,WindDirDegrees,DateUTC
12:53 AM,46.9,36.0,66,29.92,10.0,South,4.6,-,N/A,,Mostly Cloudy,170,2012-01-01 05:53:00
1:53 AM,52.0,36.0,54,29.88,10.0,South,9.2,-,N/A,,Overcast,190,2012-01-01 06:53:00
2:53 AM,54.0,36.0,51,29.87,10.0,South,9.2,-,N/A,,Overcast,180,2012-01-01 07:53:00
3:53 AM,55.0,37.0,51,29.84,10.0,South,9.2,18.4,N/A,,Overcast,180,2012-01-01 08:53:00
4:53 AM,55.9,39.0,53,29.81,10.0,South,11.5,-,N/A,,Overcast,180,2012-01-01 09:53:00
5:53 AM,57.0,43.0,59,29.79,10.0,South,9.2,20.7,N/A,,Overcast,190,2012-01-01 10:53:00
6:53 AM,59.0,46.0,62,29.79,10.0,SSW,12.7,19.6,N/A,,Overcast,200,2012-01-01 11:53:00
7:53 AM,59.0,46.9,64,29.81,10.0,SW,17.3,31.1,N/A,,Overcast,220,2012-01-01 12:53:00
8:53 AM,57.0,43.0,59,29.82,10.0,WSW,19.6,33.4,N/A,,Mostly Cloudy,250,2012-01-01 13:53:00
9:53 AM,54.0,37.0,53,29.88,10.0,West,29.9,39.1,N/A,,Overcast,270,2012-01-01 14:53:00
10:53 AM,48.0,35.1,61,29.96,10.0,West,26.5,39.1,N/A,,Overcast,260,2012-01-01 15:53:00
11:18 AM,46.4,35.6,66,29.98,10.0,West,23.0,31.1,N/A,,Overcast,270,2012-01-01 16:18:00
11:53 AM,46.0,34.0,63,30.01,10.0,West,21.9,28.8,N/A,,Overcast,270,2012-01-01 16:53:00
12:03 PM,46.4,33.8,62,30.00,10.0,West,17.3,29.9,N/A,,Overcast,260,2012-01-01 17:03:00
12:53 PM,46.4,33.8,62,30.02,10.0,West,19.6,33.4,N/A,,Overcast,280,2012-01-01 17:53:00
1:05 PM,44.6,33.8,66,30.02,10.0,West,18.4,32.2,N/A,,Overcast,280,2012-01-01 18:05:00
1:53 PM,44.6,33.8,66,30.03,10.0,West,16.1,33.4,N/A,,Overcast,270,2012-01-01 18:53:00
2:13 PM,44.6,33.8,66,30.04,10.0,West,17.3,26.5,N/A,,Overcast,280,2012-01-01 19:13:00
2:20 PM,44.6,33.8,66,30.04,10.0,West,15.0,26.5,N/A,,Overcast,270,2012-01-01 19:20:00
2:39 PM,46.4,33.8,62,30.05,10.0,West,20.7,25.3,N/A,,Overcast,270,2012-01-01 19:39:00
2:53 PM,46.0,30.9,56,30.06,10.0,West,21.9,29.9,N/A,,Mostly Cloudy,280,2012-01-01 19:53:00
3:53 PM,48.2,28.4,46,30.08,10.0,West,19.6,32.2,N/A,,Partly Cloudy,270,2012-01-01 20:53:00
4:53 PM,46.0,21.9,39,30.13,10.0,WNW,12.7,24.2,N/A,,Clear,290,2012-01-01 21:53:00
5:53 PM,44.1,21.9,42,30.15,10.0,West,15.0,20.7,N/A,,Clear,280,2012-01-01 22:53:00
6:53 PM,43.0,18.0,37,30.18,10.0,WNW,18.4,28.8,N/A,,Mostly Cloudy,300,2012-01-01 23:53:00
7:53 PM,42.1,17.1,37,30.21,10.0,WNW,17.3,24.2,N/A,,Overcast,300,2012-01-02 00:53:00
8:53 PM,39.9,15.1,36,30.22,10.0,WNW,13.8,24.2,N/A,,Mostly Cloudy,290,2012-01-02 01:53:00
9:53 PM,37.9,15.1,39,30.23,10.0,NW,19.6,25.3,N/A,,Clear,310,2012-01-02 02:53:00
10:53 PM,36.0,16.0,44,30.25,10.0,WNW,13.8,-,N/A,,Clear,290,2012-01-02 03:53:00
11:53 PM,35.1,16.0,46,30.23,10.0,WNW,11.5,21.9,N/A,,Clear,290,2012-01-02 04:53:00